Sandringham Real Estate, NSW, 2219 Bayside (NSW)

Thinking about buying in Sandringham? Now could not be a better time, with a whopping 748 properties either residential or commercial there's certainly plenty to choose from.

The average property price for this area is $2,736,000 with prices in this suburb ranging from $2,446,000 to $2,954,000.

Distance to the coast is 0 Km.

Sandringham Real Estate Market Outlook

Prices are above market average and increase steadily under persistent demand. A more sustainable rate of price growth is anticipated in the short to medium term. In this area of average incomes, there is a mix of housing size and quality. While this may present buying opportunities, growth may be constrained. As buyers begin to examine Sandringham due to other areas being out of the price range and the trend to working from home, "gentrification" may incease price growth. A mix of professions and above average income earners in Sandringham provides good demand. The lower than average housing turnover of these people also means fewer regular listings leading to periodic large price increases. Medium density in Sandringham necessitates a mix of lifestyle options for housing, shops, open areas, and facilties. Where this is available, demand is high and growth ensured. Higher than average industry presence in the wider area offering local employment yet with not a large negative impact on local amenity, provides good demand and price growth.

About

For Sale

Century21 115 CLAREVILLE AV, SANDRINGHAM, NSW, 2219 5 3 4 P.O.A.

More

Local Schools


Sandringham College

Sandringham Primary School

Sandringham East Primary School

Sacred Heart School

(While the above schools are located with the suburb of Sandringham there may also be nearby schools whose catchments cover this suburb)

Local Crime Stats


Average Local Climate by month


(mm)
RAIN
Min (°C)
TEMP
Max (°C)
TEMP
Min (%)
HUMIDITY
Max (%)
HUMIDITY
(m/sec)
WIND
(MJ/sq m)
SOLAR
Jan2.420.328.550.988.36.223.1
Feb4.120.227.552.787.86.020.1
Mar4.918.826.451.487.45.616.5
Apr3.515.623.949.486.95.014.0
May2.112.021.145.583.25.111.4
Jun4.110.018.350.886.15.29.2
Jul2.18.918.641.880.85.210.5
Aug2.09.419.636.878.15.713.2
Sept1.512.322.436.881.25.817.5
Oct2.014.824.141.484.16.021.0
Nov2.617.125.845.785.66.223.3
Dec2.018.927.446.786.46.224.6

source: Australian Government Bureau of Meteorology

Recently Sold

09-05-2022 $985,000 2 / 119 CLAREVILLE AVE SANDRINGHAM 2219
09-05-2022 $985,000 22 / 121 CLAREVILLE AVE SANDRINGHAM 2219
09-05-2022 $1,610,000 35 CLAREVILLE AVE SANDRINGHAM 2219
05-05-2022 $2,825,000 1 VANSTON PDE SANDRINGHAM 2219
03-05-2022 $4,410,000 96 CLAREVILLE AVE SANDRINGHAM 2219
26-04-2022 $3,055,000 36 MCMILLAN AVE SANDRINGHAM 2219
11-04-2022 $6,210,000 26 PRIMROSE AVE SANDRINGHAM 2219
21-03-2022 $4,875,000 42 PRIMROSE AVE SANDRINGHAM 2219
21-03-2022 $4,875,000 42 PRIMROSE AVE SANDRINGHAM 2219
21-03-2022 $6,450,000 10 / 122 CLAREVILLE AVE SANDRINGHAM 2219
03-03-2022 $740,000 22 / 147 CLAREVILLE AVE SANDRINGHAM 2219
03-03-2022 $740,000 42 / 147 CLAREVILLE AVE SANDRINGHAM 2219
25-02-2022 $2,485,000 46 CLAREVILLE AVE SANDRINGHAM 2219
07-02-2022 $5,320,000 6 / 122 CLAREVILLE AVE SANDRINGHAM 2219
01-02-2022 $3,395,000 56 CLAREVILLE AVE SANDRINGHAM 2219
22-12-2021 $1,500,000 23 SANONI AVE SANDRINGHAM 2219
21-12-2021 $3,700,000 3 / 122 CLAREVILLE AVE SANDRINGHAM 2219
15-12-2021 $2,560,000 15 DICKIN AVE SANDRINGHAM 2219
02-11-2021 $1,900,000 46 WALDRON ST SANDRINGHAM 2219
29-10-2021 $2,350,000 56 WALDRON ST SANDRINGHAM 2219
27-10-2021 $3,580,000 37 RIVERSIDE DR SANDRINGHAM 2219
27-10-2021 $3,300,000 2 ZEALANDER ST SANDRINGHAM 2219
27-10-2021 $3,580,000 37 RIVERSIDE DR SANDRINGHAM 2219
27-10-2021 $3,300,000 2 ZEALANDER ST SANDRINGHAM 2219
21-10-2021 $8,380,000 22 PRIMROSE AVE SANDRINGHAM 2219
16-09-2021 $2,440,000 50 WALDRON ST SANDRINGHAM 2219
09-08-2021 $880,000 11 / 1 MCMILLAN AVE SANDRINGHAM 2219
06-08-2021 $875,000 6 / 137 CLAREVILLE AVE SANDRINGHAM 2219
06-08-2021 $875,000 6 / 137 CLAREVILLE AVE SANDRINGHAM 2219
06-08-2021 $875,000 6 / 137 CLAREVILLE AVE SANDRINGHAM 2219
06-08-2021 $875,000 6 / 137 CLAREVILLE AVE SANDRINGHAM 2219
20-07-2021 $3,100,000 112 CLAREVILLE AVE SANDRINGHAM 2219
02-07-2021 $1,004,000 6 / 127 CLAREVILLE AVE SANDRINGHAM 2219
02-07-2021 $1,004,000 15 / 129 CLAREVILLE AVE SANDRINGHAM 2219
02-07-2021 $1,004,000 6 / 127 CLAREVILLE AVE SANDRINGHAM 2219
02-07-2021 $1,004,000 15 / 129 CLAREVILLE AVE SANDRINGHAM 2219
18-06-2021 $400,000 2 / 3 MCMILLAN AVE SANDRINGHAM 2219
31-05-2021 $1,990,000 43 SANONI AVE SANDRINGHAM 2219
06-04-2021 $30,000 3 / 119 CLAREVILLE AVE SANDRINGHAM 2219
06-04-2021 $30,000 16 / 121 CLAREVILLE AVE SANDRINGHAM 2219
06-04-2021 $30,000 3 / 119 CLAREVILLE AVE SANDRINGHAM 2219
06-04-2021 $30,000 16 / 121 CLAREVILLE AVE SANDRINGHAM 2219
19-03-2021 $1,700,000 34 SANONI AVE SANDRINGHAM 2219
17-03-2021 $840,000 9 / 123 CLAREVILLE AVE SANDRINGHAM 2219
17-03-2021 $840,000 13 / 123 CLAREVILLE AVE SANDRINGHAM 2219
17-03-2021 $840,000 15 / 123 CLAREVILLE AVE SANDRINGHAM 2219
17-03-2021 $840,000 28 / 123 CLAREVILLE AVE SANDRINGHAM 2219
17-03-2021 $840,000 9 / 123 CLAREVILLE AVE SANDRINGHAM 2219
17-03-2021 $840,000 13 / 123 CLAREVILLE AVE SANDRINGHAM 2219
17-03-2021 $840,000 15 / 123 CLAREVILLE AVE SANDRINGHAM 2219

Residz covers 12m+ Australian properties and brings together a wealth of data to give you a better understanding of an area. From crime and schools to bush fire, flood risk and more. Begin your search for properties for sale or learn more about where you currently reside. Residz is an exciting next-generation Real Estate platform getting better by the day!